Time,TemperatureF,DewpointF,PressureIn,WindDirection,WindDirectionDegrees,WindSpeedMPH,WindSpeedGustMPH,Humidity,HourlyPrecipIn,Conditions,Clouds,dailyrainin,SoftwareType,DateUTC
2013-04-20 08:49:00,35.2,25.4,30.27,NNE,23,2.0,2.0,67,0.00,,---,0.00,VWS V14.01,2013-04-20 13:49:00,
2013-04-20 08:54:00,35.8,24.8,30.27,WNW,293,6.0,7.0,64,0.00,,---,0.00,VWS V14.01,2013-04-20 13:54:00,
2013-04-20 08:59:00,36.0,24.6,30.28,NNW,332,4.0,10.0,63,0.00,,---,0.00,VWS V14.01,2013-04-20 13:59:00,
2013-04-20 09:04:00,36.0,25.0,30.28,NNW,332,2.0,6.0,64,0.00,,---,0.00,VWS V14.01,2013-04-20 14:04:00,
2013-04-20 09:09:00,36.1,25.1,30.28,North,356,3.0,9.0,64,0.00,,---,0.00,VWS V14.01,2013-04-20 14:09:00,
2013-04-20 09:14:00,36.2,25.2,30.28,NNW,339,7.0,9.0,64,0.00,,---,0.00,VWS V14.01,2013-04-20 14:14:00,
2013-04-20 09:19:00,36.4,25.4,30.28,NNW,346,4.0,9.0,64,0.00,,---,0.00,VWS V14.01,2013-04-20 14:19:00,
2013-04-20 09:24:00,36.8,25.4,30.28,WNW,285,4.0,12.0,63,0.00,,---,0.00,VWS V14.01,2013-04-20 14:24:00,
2013-04-20 09:29:00,36.8,25.4,30.28,NW,305,4.0,12.0,63,0.00,,---,0.00,VWS V14.01,2013-04-20 14:29:00,
2013-04-20 09:34:00,36.9,25.5,30.28,East,81,2.0,10.0,63,0.00,,---,0.00,VWS V14.01,2013-04-20 14:34:00,
2013-04-20 09:39:00,37.1,25.7,30.28,WNW,298,11.0,13.0,63,0.00,,---,0.00,VWS V14.01,2013-04-20 14:39:00,
2013-04-20 09:44:00,37.3,26.3,30.28,West,279,6.0,13.0,64,0.00,,---,0.00,VWS V14.01,2013-04-20 14:44:00,
2013-04-20 09:49:00,37.3,25.9,30.28,WNW,298,4.0,13.0,63,0.00,,---,0.00,VWS V14.01,2013-04-20 14:49:00,
2013-04-20 09:54:00,37.8,26.7,30.28,WNW,294,5.0,13.0,64,0.00,,---,0.00,VWS V14.01,2013-04-20 14:54:00,
2013-04-20 09:59:00,37.9,26.8,30.28,North,4,7.0,13.0,64,0.00,,---,0.00,VWS V14.01,2013-04-20 14:59:00,
2013-04-20 10:04:00,38.1,27.0,30.28,North,350,4.0,11.0,64,0.00,,---,0.00,VWS V14.01,2013-04-20 15:04:00,
2013-04-20 10:09:00,38.4,26.1,30.28,WNW,298,7.0,13.0,61,0.00,,---,0.00,VWS V14.01,2013-04-20 15:09:00,
2013-04-20 10:14:00,38.2,26.3,30.28,WNW,298,7.0,13.0,62,0.00,,---,0.00,VWS V14.01,2013-04-20 15:14:00,
2013-04-20 10:19:00,37.8,26.0,30.28,NW,325,4.0,13.0,62,0.00,,---,0.00,VWS V14.01,2013-04-20 15:19:00,
2013-04-20 10:24:00,37.9,26.5,30.28,NNW,342,7.0,13.0,63,0.00,,---,0.00,VWS V14.01,2013-04-20 15:24:00,
2013-04-20 10:29:00,38.0,26.9,30.28,East,90,4.0,13.0,64,0.00,,---,0.00,VWS V14.01,2013-04-20 15:29:00,
2013-04-20 10:34:00,38.5,27.0,30.28,NNW,329,5.0,8.0,63,0.00,,---,0.00,VWS V14.01,2013-04-20 15:34:00,
2013-04-20 10:39:00,38.7,27.6,30.28,West,277,6.0,13.0,64,0.00,,---,0.00,VWS V14.01,2013-04-20 15:39:00,
2013-04-20 10:44:00,38.8,26.9,30.28,NNE,26,7.0,14.0,62,0.00,,---,0.00,VWS V14.01,2013-04-20 15:44:00,
2013-04-20 10:49:00,38.9,27.4,30.28,West,273,10.0,14.0,63,0.00,,---,0.00,VWS V14.01,2013-04-20 15:49:00,
2013-04-20 10:54:00,39.1,26.8,30.28,West,274,6.0,14.0,61,0.00,,---,0.00,VWS V14.01,2013-04-20 15:54:00,
2013-04-20 10:59:00,39.7,27.4,30.28,NNW,347,6.0,14.0,61,0.00,,---,0.00,VWS V14.01,2013-04-20 15:59:00,
2013-04-20 11:04:00,40.0,27.2,30.28,NNW,343,3.0,5.0,60,0.00,,---,0.00,VWS V14.01,2013-04-20 16:04:00,
2013-04-20 11:09:00,40.6,28.2,30.28,WNW,300,9.0,9.0,61,0.00,,---,0.00,VWS V14.01,2013-04-20 16:09:00,
2013-04-20 11:14:00,40.9,27.7,30.28,North,353,6.0,11.0,59,0.00,,---,0.00,VWS V14.01,2013-04-20 16:14:00,
2013-04-20 11:19:00,41.0,27.8,30.27,West,277,7.0,13.0,59,0.00,,---,0.00,VWS V14.01,2013-04-20 16:19:00,
2013-04-20 11:24:00,41.3,28.5,30.27,NNE,22,9.0,13.0,60,0.00,,---,0.00,VWS V14.01,2013-04-20 16:24:00,
2013-04-20 11:29:00,41.2,28.4,30.27,NNW,348,4.0,15.0,60,0.00,,---,0.00,VWS V14.01,2013-04-20 16:29:00,
2013-04-20 11:34:00,41.4,28.2,30.27,NW,317,5.0,11.0,59,0.00,,---,0.00,VWS V14.01,2013-04-20 16:34:00,
2013-04-20 11:39:00,41.5,28.3,30.27,NW,310,13.0,13.0,59,0.00,,---,0.00,VWS V14.01,2013-04-20 16:39:00,
2013-04-20 11:44:00,41.9,28.2,30.27,North,352,4.0,13.0,58,0.00,,---,0.00,VWS V14.01,2013-04-20 16:44:00,
2013-04-20 11:49:00,42.1,28.0,30.27,North,359,6.0,13.0,57,0.00,,---,0.00,VWS V14.01,2013-04-20 16:49:00,
2013-04-20 11:54:00,42.2,27.6,30.26,NNW,348,9.0,18.0,56,0.00,,---,0.00,VWS V14.01,2013-04-20 16:54:00,
2013-04-20 11:59:00,42.4,28.3,30.26,NW,319,8.0,18.0,57,0.00,,---,0.00,VWS V14.01,2013-04-20 16:59:00,
2013-04-20 12:04:00,42.5,27.9,30.26,NNE,20,4.0,15.0,56,0.00,,---,0.00,VWS V14.01,2013-04-20 17:04:00,
2013-04-20 12:09:00,42.8,28.2,30.26,NW,315,6.0,15.0,56,0.00,,---,0.00,VWS V14.01,2013-04-20 17:09:00,
2013-04-20 12:14:00,42.9,27.4,30.25,NW,317,7.0,15.0,54,0.00,,---,0.00,VWS V14.01,2013-04-20 17:14:00,
2013-04-20 12:19:00,42.8,27.3,30.25,NW,317,4.0,15.0,54,0.00,,---,0.00,VWS V14.01,2013-04-20 17:19:00,
2013-04-20 12:24:00,42.7,27.7,30.25,NNE,21,6.0,15.0,55,0.00,,---,0.00,VWS V14.01,2013-04-20 17:24:00,
2013-04-20 12:29:00,42.7,26.3,30.25,WNW,291,7.0,16.0,52,0.00,,---,0.00,VWS V14.01,2013-04-20 17:29:00,
2013-04-20 12:34:00,42.5,26.6,30.24,North,358,6.0,10.0,53,0.00,,---,0.00,VWS V14.01,2013-04-20 17:34:00,
2013-04-20 12:39:00,42.5,26.6,30.24,North,9,8.0,12.0,53,0.00,,---,0.00,VWS V14.01,2013-04-20 17:39:00,
2013-04-20 12:44:00,42.7,26.8,30.24,NW,308,8.0,15.0,53,0.00,,---,0.00,VWS V14.01,2013-04-20 17:44:00,
2013-04-20 12:49:00,42.9,26.5,30.24,WNW,294,8.0,15.0,52,0.00,,---,0.00,VWS V14.01,2013-04-20 17:49:00,
2013-04-20 12:54:00,42.8,26.9,30.24,NW,312,9.0,15.0,53,0.00,,---,0.00,VWS V14.01,2013-04-20 17:54:00,
2013-04-20 12:59:00,43.4,27.9,30.23,West,278,6.0,17.0,54,0.00,,---,0.00,VWS V14.01,2013-04-20 17:59:00,
2013-04-20 13:04:00,43.9,28.4,30.23,NW,310,7.0,7.0,54,0.00,,---,0.00,VWS V14.01,2013-04-20 18:04:00,
2013-04-20 13:09:00,44.2,28.2,30.23,North,355,2.0,13.0,53,0.00,,---,0.00,VWS V14.01,2013-04-20 18:09:00,
2013-04-20 13:14:00,44.0,27.5,30.23,NW,315,5.0,16.0,52,0.00,,---,0.00,VWS V14.01,2013-04-20 18:14:00,
2013-04-20 13:19:00,44.3,27.8,30.22,NW,314,7.0,16.0,52,0.00,,---,0.00,VWS V14.01,2013-04-20 18:19:00,
2013-04-20 13:24:00,44.8,27.8,30.22,NNW,336,8.0,16.0,51,0.00,,---,0.00,VWS V14.01,2013-04-20 18:24:00,
2013-04-20 13:29:00,44.4,27.9,30.22,WNW,303,8.0,16.0,52,0.00,,---,0.00,VWS V14.01,2013-04-20 18:29:00,
2013-04-20 13:34:00,44.6,28.1,30.22,NW,312,6.0,9.0,52,0.00,,---,0.00,VWS V14.01,2013-04-20 18:34:00,
2013-04-20 13:39:00,44.9,29.3,30.22,NW,314,6.0,17.0,54,0.00,,---,0.00,VWS V14.01,2013-04-20 18:39:00,
2013-04-20 13:44:00,45.2,28.6,30.22,NW,312,15.0,17.0,52,0.00,,---,0.00,VWS V14.01,2013-04-20 18:44:00,
2013-04-20 13:49:00,45.1,28.5,30.21,NW,315,7.0,17.0,52,0.00,,---,0.00,VWS V14.01,2013-04-20 18:49:00,
2013-04-20 13:54:00,45.6,29.0,30.21,NE,46,7.0,17.0,52,0.00,,---,0.00,VWS V14.01,2013-04-20 18:54:00,
2013-04-20 13:58:00,45.6,29.0,30.21,North,9,9.0,17.0,52,0.00,,---,0.00,VWS V14.01,2013-04-20 18:58:00,
2013-04-20 14:03:00,45.9,29.3,30.21,North,3,10.0,11.0,52,0.00,,---,0.00,VWS V14.01,2013-04-20 19:03:00,
2013-04-20 14:08:00,45.9,29.8,30.21,NNW,339,12.0,16.0,53,0.00,,---,0.00,VWS V14.01,2013-04-20 19:08:00,
2013-04-20 14:14:00,46.1,28.5,30.21,North,353,7.0,17.0,50,0.00,,---,0.00,VWS V14.01,2013-04-20 19:14:00,
2013-04-20 14:19:00,46.1,29.0,30.21,NW,315,7.0,17.0,51,0.00,,---,0.00,VWS V14.01,2013-04-20 19:19:00,
2013-04-20 14:24:00,46.3,28.7,30.21,NNW,343,4.0,17.0,50,0.00,,---,0.00,VWS V14.01,2013-04-20 19:24:00,
2013-04-20 14:29:00,46.4,29.8,30.21,WNW,293,14.0,17.0,52,0.00,,---,0.00,VWS V14.01,2013-04-20 19:29:00,
2013-04-20 14:34:00,46.4,29.3,30.21,NW,325,8.0,10.0,51,0.00,,---,0.00,VWS V14.01,2013-04-20 19:34:00,
2013-04-20 14:38:00,46.6,29.9,30.20,North,358,8.0,14.0,52,0.00,,---,0.00,VWS V14.01,2013-04-20 19:38:00,
2013-04-20 14:44:00,46.5,29.4,30.20,NW,321,5.0,14.0,51,0.00,,---,0.00,VWS V14.01,2013-04-20 19:44:00,
2013-04-20 14:49:00,46.3,29.6,30.20,WNW,302,7.0,14.0,52,0.00,,---,0.00,VWS V14.01,2013-04-20 19:49:00,
2013-04-20 14:54:00,46.6,29.9,30.20,WNW,289,7.0,16.0,52,0.00,,---,0.00,VWS V14.01,2013-04-20 19:54:00,
2013-04-20 14:59:00,46.8,29.6,30.20,NNW,331,11.0,16.0,51,0.00,,---,0.00,VWS V14.01,2013-04-20 19:59:00,
2013-04-20 15:04:00,46.5,29.4,30.20,WNW,286,6.0,9.0,51,0.00,,---,0.00,VWS V14.01,2013-04-20 20:04:00,
2013-04-20 15:09:00,46.8,30.1,30.20,NW,319,5.0,15.0,52,0.00,,---,0.00,VWS V14.01,2013-04-20 20:09:00,
2013-04-20 15:13:00,46.9,30.2,30.20,NNW,332,8.0,16.0,52,0.00,,---,0.00,VWS V14.01,2013-04-20 20:13:00,
2013-04-20 15:18:00,46.9,29.7,30.20,NNW,344,14.0,16.0,51,0.00,,---,0.00,VWS V14.01,2013-04-20 20:18:00,
2013-04-20 15:23:00,46.9,29.2,30.20,WNW,297,5.0,16.0,50,0.00,,---,0.00,VWS V14.01,2013-04-20 20:23:00,
2013-04-20 15:28:00,46.9,29.7,30.19,NNW,348,8.0,17.0,51,0.00,,---,0.00,VWS V14.01,2013-04-20 20:28:00,
2013-04-20 15:33:00,47.4,30.2,30.19,NNW,336,12.0,13.0,51,0.00,,---,0.00,VWS V14.01,2013-04-20 20:33:00,
2013-04-20 15:38:00,48.1,29.9,30.19,NNW,336,8.0,18.0,49,0.00,,---,0.00,VWS V14.01,2013-04-20 20:38:00,
2013-04-20 15:43:00,47.9,28.7,30.19,WNW,296,7.0,18.0,47,0.00,,---,0.00,VWS V14.01,2013-04-20 20:43:00,
2013-04-20 15:48:00,47.8,29.1,30.19,NNW,343,10.0,18.0,48,0.00,,---,0.00,VWS V14.01,2013-04-20 20:48:00,
2013-04-20 15:53:00,47.7,28.5,30.18,WSW,257,4.0,18.0,47,0.00,,---,0.00,VWS V14.01,2013-04-20 20:53:00,
2013-04-20 15:58:00,47.6,28.9,30.18,North,350,5.0,18.0,48,0.00,,---,0.00,VWS V14.01,2013-04-20 20:58:00,
2013-04-20 16:03:00,47.4,29.2,30.18,NW,326,6.0,10.0,49,0.00,,---,0.00,VWS V14.01,2013-04-20 21:03:00,
2013-04-20 16:08:00,47.9,30.2,30.17,WNW,298,8.0,17.0,50,0.00,,---,0.00,VWS V14.01,2013-04-20 21:08:00,
2013-04-20 16:13:00,48.2,30.0,30.17,West,274,6.0,17.0,49,0.00,,---,0.00,VWS V14.01,2013-04-20 21:13:00,
2013-04-20 16:18:00,48.6,30.3,30.17,ENE,75,13.0,19.0,49,0.00,,---,0.00,VWS V14.01,2013-04-20 21:18:00,
2013-04-20 16:23:00,48.6,29.8,30.16,NNE,16,10.0,19.0,48,0.00,,---,0.00,VWS V14.01,2013-04-20 21:23:00,
2013-04-20 16:28:00,48.8,30.5,30.17,NW,326,6.0,19.0,49,0.00,,---,0.00,VWS V14.01,2013-04-20 21:28:00,
2013-04-20 16:33:00,48.1,29.4,30.16,WNW,298,12.0,12.0,48,0.00,,---,0.00,VWS V14.01,2013-04-20 21:33:00,
2013-04-20 16:38:00,47.7,29.5,30.16,North,349,6.0,16.0,49,0.00,,---,0.00,VWS V14.01,2013-04-20 21:38:00,
2013-04-20 16:43:00,47.4,29.2,30.16,NNW,329,10.0,18.0,49,0.00,,---,0.00,VWS V14.01,2013-04-20 21:43:00,
2013-04-20 16:48:00,47.3,29.6,30.16,North,357,5.0,20.0,50,0.00,,---,0.00,VWS V14.01,2013-04-20 21:48:00,
2013-04-20 16:53:00,47.2,29.5,30.16,North,356,7.0,20.0,50,0.00,,---,0.00,VWS V14.01,2013-04-20 21:53:00,
2013-04-20 16:58:00,47.2,30.0,30.16,NNW,331,12.0,20.0,51,0.00,,---,0.00,VWS V14.01,2013-04-20 21:58:00,
2013-04-20 17:03:00,47.3,30.6,30.16,ENE,70,9.0,11.0,52,0.00,,---,0.00,VWS V14.01,2013-04-20 22:03:00,
2013-04-20 17:08:00,47.1,29.9,30.16,North,357,6.0,17.0,51,0.00,,---,0.00,VWS V14.01,2013-04-20 22:08:00,
2013-04-20 17:13:00,47.5,30.3,30.16,NNW,343,8.0,17.0,51,0.00,,---,0.00,VWS V14.01,2013-04-20 22:13:00,
2013-04-20 17:18:00,47.3,30.1,30.15,WNW,291,6.0,17.0,51,0.00,,---,0.00,VWS V14.01,2013-04-20 22:18:00,
2013-04-20 17:23:00,47.1,29.4,30.15,NW,324,4.0,17.0,50,0.00,,---,0.00,VWS V14.01,2013-04-20 22:23:00,
2013-04-20 17:28:00,47.2,30.0,30.15,NW,326,6.0,18.0,51,0.00,,---,0.00,VWS V14.01,2013-04-20 22:28:00,
2013-04-20 17:33:00,47.0,29.8,30.15,NE,36,3.0,6.0,51,0.00,,---,0.00,VWS V14.01,2013-04-20 22:33:00,
2013-04-20 17:38:00,47.2,30.5,30.15,North,2,7.0,13.0,52,0.00,,---,0.00,VWS V14.01,2013-04-20 22:38:00,
2013-04-20 17:43:00,46.9,29.7,30.15,WNW,296,4.0,14.0,51,0.00,,---,0.00,VWS V14.01,2013-04-20 22:43:00,
2013-04-20 17:48:00,46.9,29.7,30.16,WNW,303,8.0,14.0,51,0.00,,---,0.00,VWS V14.01,2013-04-20 22:48:00,
2013-04-20 17:53:00,46.8,30.1,30.16,NW,324,7.0,14.0,52,0.00,,---,0.00,VWS V14.01,2013-04-20 22:53:00,
2013-04-20 17:58:00,46.7,30.0,30.16,NNW,338,7.0,15.0,52,0.00,,---,0.00,VWS V14.01,2013-04-20 22:58:00,
2013-04-20 18:03:00,46.8,30.1,30.16,North,360,7.0,7.0,52,0.00,,---,0.00,VWS V14.01,2013-04-20 23:03:00,
2013-04-20 18:08:00,46.6,30.4,30.16,North,360,6.0,14.0,53,0.00,,---,0.00,VWS V14.01,2013-04-20 23:08:00,
2013-04-20 18:13:00,46.6,30.4,30.16,North,356,6.0,16.0,53,0.00,,---,0.00,VWS V14.01,2013-04-20 23:13:00,
2013-04-20 18:18:00,46.6,30.4,30.16,WNW,300,11.0,16.0,53,0.00,,---,0.00,VWS V14.01,2013-04-20 23:18:00,
2013-04-20 18:23:00,46.7,31.0,30.16,NNW,336,11.0,16.0,54,0.00,,---,0.00,VWS V14.01,2013-04-20 23:23:00,
2013-04-20 18:28:00,46.7,31.0,30.16,North,359,7.0,16.0,54,0.00,,---,0.00,VWS V14.01,2013-04-20 23:28:00,
2013-04-20 18:33:00,46.9,31.6,30.16,NW,305,5.0,16.0,55,0.00,,---,0.00,VWS V14.01,2013-04-20 23:33:00,
2013-04-20 18:38:00,47.1,31.8,30.17,NNW,338,10.0,15.0,55,0.00,,---,0.00,VWS V14.01,2013-04-20 23:38:00,
2013-04-20 18:43:00,47.4,32.1,30.17,NW,307,8.0,15.0,55,0.00,,---,0.00,VWS V14.01,2013-04-20 23:43:00,
2013-04-20 18:48:00,47.5,31.7,30.17,North,353,9.0,15.0,54,0.00,,---,0.00,VWS V14.01,2013-04-20 23:48:00,
2013-04-20 18:53:00,47.6,32.2,30.17,NNE,26,6.0,18.0,55,0.00,,---,0.00,VWS V14.01,2013-04-20 23:53:00,
2013-04-20 18:58:00,47.8,32.4,30.17,NNE,16,2.0,18.0,55,0.00,,---,0.00,VWS V14.01,2013-04-20 23:58:00,
2013-04-20 19:03:00,47.9,32.5,30.17,NNE,21,8.0,18.0,55,0.00,,---,0.00,VWS V14.01,2013-04-21 00:03:00,
2013-04-20 19:08:00,48.0,32.2,30.17,NW,325,4.0,13.0,54,0.00,,---,0.00,VWS V14.01,2013-04-21 00:08:00,
2013-04-20 19:13:00,48.1,32.7,30.17,ENE,69,5.0,13.0,55,0.00,,---,0.00,VWS V14.01,2013-04-21 00:13:00,
2013-04-20 19:18:00,48.2,32.3,30.17,NNW,346,6.0,13.0,54,0.00,,---,0.00,VWS V14.01,2013-04-21 00:18:00,
2013-04-20 19:23:00,48.2,32.3,30.17,NNE,17,6.0,13.0,54,0.00,,---,0.00,VWS V14.01,2013-04-21 00:23:00,
2013-04-20 19:28:00,48.2,32.8,30.17,NNE,13,4.0,13.0,55,0.00,,---,0.00,VWS V14.01,2013-04-21 00:28:00,
2013-04-20 19:33:00,48.1,32.7,30.17,NNE,16,2.0,13.0,55,0.00,,---,0.00,VWS V14.01,2013-04-21 00:33:00,
2013-04-20 19:38:00,48.0,32.6,30.17,NNE,13,2.0,11.0,55,0.00,,---,0.00,VWS V14.01,2013-04-21 00:38:00,
2013-04-20 19:43:00,47.9,33.0,30.17,NW,304,11.0,11.0,56,0.00,,---,0.00,VWS V14.01,2013-04-21 00:43:00,
2013-04-20 19:48:00,47.7,32.8,30.17,WNW,290,4.0,11.0,56,0.00,,---,0.00,VWS V14.01,2013-04-21 00:48:00,
2013-04-20 19:53:00,47.3,32.4,30.17,West,277,4.0,11.0,56,0.00,,---,0.00,VWS V14.01,2013-04-21 00:53:00,
2013-04-20 19:58:00,47.0,32.6,30.17,NW,310,3.0,11.0,57,0.00,,---,0.00,VWS V14.01,2013-04-21 00:58:00,
2013-04-20 20:03:00,46.7,32.7,30.17,West,269,5.0,11.0,58,0.00,,---,0.00,VWS V14.01,2013-04-21 01:03:00,
2013-04-20 20:08:00,46.3,32.8,30.17,WNW,293,6.0,6.0,59,0.00,,---,0.00,VWS V14.01,2013-04-21 01:08:00,
2013-04-20 20:13:00,46.0,32.9,30.18,NW,310,4.0,6.0,60,0.00,,---,0.00,VWS V14.01,2013-04-21 01:13:00,
2013-04-20 20:18:00,45.6,32.9,30.18,NW,324,4.0,8.0,61,0.00,,---,0.00,VWS V14.01,2013-04-21 01:18:00,
2013-04-20 20:23:00,45.3,32.7,30.17,WNW,297,6.0,8.0,61,0.00,,---,0.00,VWS V14.01,2013-04-21 01:23:00,
2013-04-20 20:28:00,45.0,32.8,30.17,WNW,297,6.0,10.0,62,0.00,,---,0.00,VWS V14.01,2013-04-21 01:28:00,
2013-04-20 20:33:00,44.8,33.0,30.17,North,349,8.0,10.0,63,0.00,,---,0.00,VWS V14.01,2013-04-21 01:33:00,
2013-04-20 20:38:00,44.5,32.7,30.18,North,6,3.0,7.0,63,0.00,,---,0.00,VWS V14.01,2013-04-21 01:38:00,
2013-04-20 20:43:00,44.3,32.5,30.18,North,351,7.0,11.0,63,0.00,,---,0.00,VWS V14.01,2013-04-21 01:43:00,
2013-04-20 20:48:00,44.1,32.7,30.18,ENE,73,3.0,11.0,64,0.00,,---,0.00,VWS V14.01,2013-04-21 01:48:00,
2013-04-20 20:53:00,44.0,32.6,30.17,WNW,293,3.0,11.0,64,0.00,,---,0.00,VWS V14.01,2013-04-21 01:53:00,
2013-04-20 20:58:00,43.8,32.8,30.18,NNW,331,12.0,13.0,65,0.00,,---,0.00,VWS V14.01,2013-04-21 01:58:00,
2013-04-20 21:03:00,43.6,32.6,30.18,NW,316,2.0,13.0,65,0.00,,---,0.00,VWS V14.01,2013-04-21 02:03:00,
2013-04-20 21:08:00,43.4,32.4,30.18,WNW,287,4.0,8.0,65,0.00,,---,0.00,VWS V14.01,2013-04-21 02:08:00,
2013-04-20 21:13:00,43.3,32.3,30.18,North,3,6.0,11.0,65,0.00,,---,0.00,VWS V14.01,2013-04-21 02:13:00,
2013-04-20 21:18:00,43.2,31.9,30.19,NE,36,2.0,11.0,64,0.00,,---,0.00,VWS V14.01,2013-04-21 02:18:00,
2013-04-20 21:23:00,43.0,32.1,30.19,NW,319,5.0,11.0,65,0.00,,---,0.00,VWS V14.01,2013-04-21 02:23:00,
2013-04-20 21:28:00,42.9,32.0,30.19,WNW,303,4.0,11.0,65,0.00,,---,0.00,VWS V14.01,2013-04-21 02:28:00,
2013-04-20 21:33:00,42.8,31.9,30.20,NW,310,3.0,11.0,65,0.00,,---,0.00,VWS V14.01,2013-04-21 02:33:00,
2013-04-20 21:38:00,42.7,31.8,30.19,NNW,336,4.0,7.0,65,0.00,,---,0.00,VWS V14.01,2013-04-21 02:38:00,
2013-04-20 21:43:00,42.5,31.6,30.19,WNW,301,5.0,11.0,65,0.00,,---,0.00,VWS V14.01,2013-04-21 02:43:00,
2013-04-20 21:48:00,42.4,31.5,30.20,NW,308,5.0,11.0,65,0.00,,---,0.00,VWS V14.01,2013-04-21 02:48:00,
2013-04-20 21:53:00,42.2,31.7,30.20,North,9,1.0,11.0,66,0.00,,---,0.00,VWS V14.01,2013-04-21 02:53:00,
2013-04-20 21:58:00,42.1,31.6,30.20,NW,310,5.0,11.0,66,0.00,,---,0.00,VWS V14.01,2013-04-21 02:58:00,
2013-04-20 22:03:00,42.0,31.5,30.20,West,274,2.0,11.0,66,0.00,,---,0.00,VWS V14.01,2013-04-21 03:03:00,
2013-04-20 22:08:00,41.9,31.4,30.20,NW,311,5.0,10.0,66,0.00,,---,0.00,VWS V14.01,2013-04-21 03:08:00,
2013-04-20 22:13:00,41.8,31.3,30.20,NW,317,4.0,10.0,66,0.00,,---,0.00,VWS V14.01,2013-04-21 03:13:00,
2013-04-20 22:18:00,41.6,31.1,30.20,NNW,329,5.0,10.0,66,0.00,,---,0.00,VWS V14.01,2013-04-21 03:18:00,
2013-04-20 22:23:00,41.5,31.0,30.20,NW,304,4.0,10.0,66,0.00,,---,0.00,VWS V14.01,2013-04-21 03:23:00,
2013-04-20 22:28:00,41.3,31.2,30.20,NNW,340,4.0,10.0,67,0.00,,---,0.00,VWS V14.01,2013-04-21 03:28:00,
2013-04-20 22:33:00,41.2,31.1,30.20,WNW,289,4.0,10.0,67,0.00,,---,0.00,VWS V14.01,2013-04-21 03:33:00,
2013-04-20 22:38:00,41.1,31.0,30.20,NW,307,6.0,8.0,67,0.00,,---,0.00,VWS V14.01,2013-04-21 03:38:00,
2013-04-20 22:43:00,41.0,30.9,30.20,West,273,4.0,8.0,67,0.00,,---,0.00,VWS V14.01,2013-04-21 03:43:00,
2013-04-20 22:48:00,40.8,31.1,30.20,WNW,297,4.0,8.0,68,0.00,,---,0.00,VWS V14.01,2013-04-21 03:48:00,
2013-04-20 22:53:00,40.7,31.0,30.20,North,349,1.0,8.0,68,0.00,,---,0.00,VWS V14.01,2013-04-21 03:53:00,
2013-04-20 22:58:00,40.5,31.1,30.20,ENE,67,1.0,8.0,69,0.00,,---,0.00,VWS V14.01,2013-04-21 03:58:00,
2013-04-20 23:01:00,40.4,31.0,30.20,WNW,297,3.0,8.0,69,0.00,,---,0.00,VWS V14.01,2013-04-21 04:01:00,
2013-04-20 23:06:00,40.3,31.0,30.20,WSW,251,4.0,5.0,69,0.00,,---,0.00,VWS V14.01,2013-04-21 04:06:00,
2013-04-20 23:11:00,40.1,31.1,30.20,NW,315,2.0,7.0,70,0.00,,---,0.00,VWS V14.01,2013-04-21 04:11:00,
2013-04-20 23:16:00,39.9,30.9,30.20,North,349,2.0,7.0,70,0.00,,---,0.00,VWS V14.01,2013-04-21 04:16:00,
2013-04-20 23:21:00,39.7,31.1,30.19,NE,36,2.0,7.0,71,0.00,,---,0.00,VWS V14.01,2013-04-21 04:21:00,
2013-04-20 23:26:00,39.5,30.9,30.19,NNW,338,2.0,7.0,71,0.00,,---,0.00,VWS V14.01,2013-04-21 04:26:00,
2013-04-20 23:31:00,39.4,31.1,30.19,North,352,2.0,7.0,72,0.00,,---,0.00,VWS V14.01,2013-04-21 04:31:00,
2013-04-20 23:36:00,39.4,31.1,30.19,WNW,291,0.0,6.0,72,0.00,,---,0.00,VWS V14.01,2013-04-21 04:36:00,
2013-04-20 23:41:00,39.3,31.0,30.19,North,355,2.0,6.0,72,0.00,,---,0.00,VWS V14.01,2013-04-21 04:41:00,
2013-04-20 23:46:00,39.3,31.0,30.19,NNE,18,1.0,6.0,72,0.00,,---,0.00,VWS V14.01,2013-04-21 04:46:00,
2013-04-20 23:51:00,39.3,31.0,30.19,North,356,3.0,7.0,72,0.00,,---,0.00,VWS V14.01,2013-04-21 04:51:00,
2013-04-20 23:56:00,39.2,31.0,30.19,NNW,343,3.0,7.0,72,0.00,,---,0.00,VWS V14.01,2013-04-21 04:56:00,